Terminal Aerodrome Forecast
Issued by NWS Melbourne, FL

Home | Current Version | Previous Version | Text Only | Print | Product List | Glossary On
Versions: 1 2 3 4 5 6 7 8 9 10 11 12 13 14 15 16 17 18 19
476
FTUS42 KMLB 191940 AAA
TAFDAB
TAF AMD
KDAB 191940Z 1920/2018 06007KT P6SM SCT005
      TEMPO 1920/1924 2SM BR BKN005
     FM200000 00000KT 2SM BR BKN005
     FM200600 22004KT 4SM BR SCT005 BKN150
     FM201400 21006KT P6SM FEW015 SCT100=

USA.gov is the U.S. government's official web portal to all federal, state and local government web resources and services.